Terminal Aerodrome Forecast
Issued by NWS Wilmington, NC

Home | Current Version | Previous Version | Text Only | Print | Product List | Glossary On
Versions: 1 2 3 4 5 6 7 8 9 10 11 12 13 14
000
FTUS42 KILM 310919 AAA
TAFMYR
TAF AMD
KMYR 310919Z 3109/0106 14009KT 4SM -SHRA BR SCT020 OVC045
     FM311100 12004KT 4SM -SHRA BR BKN020
     FM311800 15011G18KT 6SM -RA BR SCT025 BKN050 OVC100
     FM010000 16007KT P6SM OVC025
      AMD LTD TO CLD VIS AND WIND TIL 311100=

USA.gov is the U.S. government's official web portal to all federal, state and local government web resources and services.